Time;durP1;ratioP1;P1;durP2;ratioP2;P2;SDS_P1;SDS_P2;PMS_P1;PMS_P2;Temp;Humidity;BMP_temperature;BMP_pressure;BME280_temperature;BME280_humidity;BME280_pressure;Samples;Min_cycle;Max_cycle;Signal;HPM_P1;HPM_P2
2022/12/19 00:01:34;;;;;;;48.55;22.38;;;;;;;2.11;100.00;101721.78;4997840;28;20045;-71
2022/12/19 00:04:03;;;;;;;46.90;20.60;;;;;;;2.13;100.00;101720.31;5005659;28;20069;-71
2022/12/19 00:06:33;;;;;;;38.13;12.40;;;;;;;2.13;100.00;101722.28;5009894;28;20045;-70
2022/12/19 00:09:00;;;;;;;40.60;15.30;;;;;;;2.16;100.00;101721.63;4999140;28;20440;-72
2022/12/19 00:11:28;;;;;;;50.85;22.05;;;;;;;2.16;100.00;101722.41;5012313;28;20490;-69
2022/12/19 00:13:54;;;;;;;54.63;24.23;;;;;;;2.18;100.00;101712.00;5004509;28;20049;-71
2022/12/19 00:16:23;;;;;;;44.47;19.92;;;;;;;2.20;100.00;101703.50;5008218;28;20049;-70
2022/12/19 00:18:53;;;;;;;42.20;19.85;;;;;;;2.24;100.00;101699.81;5010801;28;20053;-70
2022/12/19 00:21:24;;;;;;;47.90;20.85;;;;;;;2.24;100.00;101699.00;5007479;28;21064;-70
2022/12/19 00:23:51;;;;;;;25.20;9.18;;;;;;;2.25;100.00;101690.50;5013409;28;20041;-71
2022/12/19 00:26:21;;;;;;;49.80;23.08;;;;;;;2.30;100.00;101698.53;5006683;28;20045;-71
2022/12/19 00:28:51;;;;;;;45.03;19.23;;;;;;;2.31;100.00;101681.03;5005772;28;20831;-71
2022/12/19 00:31:18;;;;;;;45.90;18.83;;;;;;;2.31;100.00;101688.41;5004010;28;20045;-72
2022/12/19 00:33:46;;;;;;;38.88;15.10;;;;;;;2.30;100.00;101681.34;5008389;28;20144;-72
2022/12/19 00:36:16;;;;;;;48.92;21.10;;;;;;;2.35;100.00;101698.38;5022412;28;20049;-71
2022/12/19 00:38:50;;;;;;;40.60;17.60;;;;;;;2.39;100.00;101696.63;5004432;28;20056;-71
2022/12/19 00:41:28;;;;;;;47.92;19.67;;;;;;;2.42;100.00;101690.53;5006806;28;20156;-70
2022/12/19 00:43:59;;;;;;;23.77;10.85;;;;;;;2.39;100.00;101684.88;5008866;28;20376;-70
2022/12/19 00:46:27;;;;;;;27.88;11.80;;;;;;;2.40;100.00;101673.63;5010729;28;20060;-71
2022/12/19 00:48:54;;;;;;;45.55;18.40;;;;;;;2.41;100.00;101677.19;5003402;28;20053;-71
2022/12/19 00:51:24;;;;;;;43.58;18.45;;;;;;;2.42;100.00;101670.59;5008876;28;20068;-70
2022/12/19 00:53:52;;;;;;;26.88;10.00;;;;;;;2.42;100.00;101665.94;5006763;28;20065;-73
2022/12/19 00:56:26;;;;;;;15.10;6.80;;;;;;;2.43;100.00;101673.00;5005088;28;20251;-71
2022/12/19 00:58:53;;;;;;;26.48;9.88;;;;;;;2.42;100.00;101676.06;5004380;28;20057;-70
2022/12/19 01:01:23;;;;;;;42.33;16.83;;;;;;;2.46;100.00;101675.09;5005093;28;20060;-71
2022/12/19 01:03:50;;;;;;;37.97;14.75;;;;;;;2.45;100.00;101661.75;5007143;28;20045;-71
2022/12/19 01:06:36;;;;;;;34.90;11.93;;;;;;;2.46;100.00;101668.81;5011753;28;20049;-72
2022/12/19 01:09:05;;;;;;;36.05;13.00;;;;;;;2.45;100.00;101664.50;4998299;28;20099;-71
2022/12/19 01:14:17;;;;;;;23.15;8.38;;;;;;;2.47;100.00;101665.00;5006908;28;20056;-70
2022/12/19 01:16:49;;;;;;;36.60;14.75;;;;;;;2.54;100.00;101665.31;5010649;28;20048;-72
2022/12/19 01:19:15;;;;;;;35.80;12.43;;;;;;;2.53;100.00;101660.94;5011253;28;20844;-71
2022/12/19 01:21:42;;;;;;;45.80;20.60;;;;;;;2.54;100.00;101646.97;5000174;28;20068;-71
2022/12/19 01:24:09;;;;;;;38.88;16.02;;;;;;;2.52;100.00;101640.22;5004219;28;20045;-71
2022/12/19 01:26:36;;;;;;;48.13;19.70;;;;;;;2.54;100.00;101638.00;5008568;28;20081;-72
2022/12/19 01:29:03;;;;;;;43.75;18.58;;;;;;;2.58;100.00;101636.22;5006110;28;20052;-70
2022/12/19 01:31:31;;;;;;;28.35;11.68;;;;;;;2.58;100.00;101645.22;4997917;28;20098;-72
2022/12/19 01:33:59;;;;;;;43.25;17.33;;;;;;;2.64;100.00;101651.34;5009962;28;20160;-71
2022/12/19 01:36:26;;;;;;;31.20;12.52;;;;;;;2.67;100.00;101650.69;5000942;28;20482;-71
2022/12/19 01:38:57;;;;;;;42.30;16.85;;;;;;;2.71;100.00;101643.44;5001906;28;20057;-71
2022/12/19 01:41:24;;;;;;;26.05;10.82;;;;;;;2.76;100.00;101634.28;5007174;28;20060;-72
2022/12/19 01:44:00;;;;;;;22.05;9.32;;;;;;;2.81;100.00;101629.47;5003304;28;20482;-71
2022/12/19 01:46:37;;;;;;;28.42;10.43;;;;;;;2.84;100.00;101626.09;5009639;28;20296;-71
2022/12/19 01:49:09;;;;;;;41.65;16.05;;;;;;;2.91;100.00;101623.66;5015483;28;20346;-71
2022/12/19 01:51:45;;;;;;;41.67;17.43;;;;;;;2.94;100.00;101617.53;5008171;28;20061;-69
2022/12/19 01:54:33;;;;;;;39.63;17.57;;;;;;;3.05;100.00;101615.25;5014308;28;20944;-71
2022/12/19 01:57:03;;;;;;;39.47;18.00;;;;;;;3.08;100.00;101604.47;5014083;28;20616;-70
2022/12/19 01:59:51;;;;;;;43.88;19.67;;;;;;;3.08;100.00;101593.53;5001213;28;20057;-67
2022/12/19 02:02:32;;;;;;;40.22;17.55;;;;;;;3.12;100.00;101583.56;5010397;28;20557;-70
2022/12/19 02:05:00;;;;;;;40.55;17.70;;;;;;;3.09;100.00;101559.59;5011130;28;20159;-70
2022/12/19 02:07:27;;;;;;;38.63;18.67;;;;;;;3.19;100.00;101561.97;5010016;28;20069;-69
2022/12/19 02:09:55;;;;;;;35.75;15.40;;;;;;;3.24;100.00;101570.00;5011981;28;20584;-70
2022/12/19 02:12:25;;;;;;;23.48;9.85;;;;;;;3.25;100.00;101557.13;5013088;28;20053;-70
2022/12/19 02:14:54;;;;;;;48.13;20.95;;;;;;;3.29;100.00;101545.22;5009175;28;20132;-70
2022/12/19 02:17:37;;;;;;;24.23;8.05;;;;;;;3.34;100.00;101553.22;5012026;28;20247;-70
2022/12/19 02:20:39;;;;;;;44.88;19.92;;;;;;;3.40;100.00;101534.69;5012939;28;20045;-71
2022/12/19 02:23:48;;;;;;;46.70;19.42;;;;;;;3.40;100.00;101526.47;5000518;28;20573;-71
2022/12/19 02:26:33;;;;;;;28.83;11.70;;;;;;;3.41;100.00;101501.53;4998678;28;20042;-71
2022/12/19 02:29:18;;;;;;;32.10;11.77;;;;;;;3.44;100.00;101491.88;5003315;28;20053;-71
2022/12/19 02:32:05;;;;;;;22.98;9.60;;;;;;;3.50;100.00;101498.72;5003608;28;20304;-72
2022/12/19 02:34:48;;;;;;;41.95;18.92;;;;;;;3.59;100.00;101494.03;5010665;28;20046;-70
2022/12/19 02:37:40;;;;;;;33.42;15.65;;;;;;;3.63;100.00;101497.69;5009728;28;20048;-71
2022/12/19 02:40:18;;;;;;;41.83;17.77;;;;;;;3.65;100.00;101503.66;5010295;28;20041;-71
2022/12/19 02:42:49;;;;;;;41.35;17.92;;;;;;;3.65;100.00;101509.91;5011000;28;20053;-71
2022/12/19 02:45:18;;;;;;;40.45;17.52;;;;;;;3.71;100.00;101514.06;5009874;28;20053;-69
2022/12/19 02:47:56;;;;;;;45.22;15.27;;;;;;;3.74;100.00;101507.91;5023769;28;20072;-68
2022/12/19 02:50:24;;;;;;;29.90;12.18;;;;;;;3.79;100.00;101507.75;5022022;28;20145;-68
2022/12/19 02:52:51;;;;;;;41.75;19.40;;;;;;;3.81;100.00;101501.94;5029681;28;20049;-71
2022/12/19 02:55:22;;;;;;;22.23;9.80;;;;;;;3.86;100.00;101499.81;5029602;28;20050;-71
2022/12/19 02:58:12;;;;;;;29.00;11.30;;;;;;;3.95;100.00;101495.03;5024274;28;20045;-68
2022/12/19 03:00:53;;;;;;;25.48;10.63;;;;;;;4.02;100.00;101498.03;5012451;28;20502;-70
2022/12/19 03:03:27;;;;;;;37.47;16.50;;;;;;;4.10;100.00;101486.22;5032773;28;20051;-68
2022/12/19 03:06:00;;;;;;;41.70;18.02;;;;;;;4.09;100.00;101479.13;5022951;28;20046;-70
2022/12/19 03:08:32;;;;;;;38.60;17.13;;;;;;;4.08;100.00;101474.81;5013753;28;20064;-71
2022/12/19 03:11:06;;;;;;;27.60;10.30;;;;;;;4.10;100.00;101480.75;5034128;28;20067;-70
2022/12/19 03:13:38;;;;;;;22.85;10.10;;;;;;;4.15;100.00;101485.22;5023770;28;20061;-71
2022/12/19 03:16:08;;;;;;;20.75;9.13;;;;;;;4.19;100.00;101478.72;5030491;28;20053;-71
2022/12/19 03:18:35;;;;;;;39.60;18.02;;;;;;;4.19;100.00;101473.25;5028969;28;20417;-71
2022/12/19 03:21:18;;;;;;;27.10;8.70;;;;;;;4.18;100.00;101477.13;5029273;28;20061;-69
2022/12/19 03:23:46;;;;;;;35.47;15.55;;;;;;;4.24;100.00;101475.78;5030295;28;20421;-69
2022/12/19 03:26:18;;;;;;;35.53;14.82;;;;;;;4.27;100.00;101480.59;5020437;28;20053;-67
2022/12/19 03:28:51;;;;;;;39.00;17.65;;;;;;;4.28;100.00;101473.16;5015684;28;20060;-69
2022/12/19 03:31:21;;;;;;;27.30;9.50;;;;;;;4.28;100.00;101462.22;5028117;28;20058;-68
2022/12/19 03:33:54;;;;;;;41.42;16.15;;;;;;;4.31;100.00;101456.88;5030431;28;20053;-69
2022/12/19 03:36:27;;;;;;;40.55;16.10;;;;;;;4.28;100.00;101463.03;5029466;28;20080;-69
2022/12/19 03:38:55;;;;;;;27.33;9.52;;;;;;;4.29;100.00;101453.66;5033100;28;20053;-69
2022/12/19 03:44:13;;;;;;;27.75;11.68;;;;;;;4.31;100.00;101456.88;5029361;28;20579;-71
2022/12/19 03:46:44;;;;;;;20.90;9.25;;;;;;;4.34;100.00;101453.47;5027385;28;20049;-69
2022/12/19 03:49:12;;;;;;;16.88;8.20;;;;;;;4.39;100.00;101461.44;5029145;28;20136;-70
2022/12/19 03:52:30;;;;;;;36.20;12.27;;;;;;;4.46;100.00;101447.22;5027343;28;20053;-68
2022/12/19 03:55:34;;;;;;;23.42;6.95;;;;;;;4.54;100.00;101449.88;4974847;28;20080;-68
2022/12/19 03:58:09;;;;;;;37.15;15.68;;;;;;;4.56;100.00;101438.56;5008664;28;20068;-68
2022/12/19 04:00:41;;;;;;;35.97;15.45;;;;;;;4.57;100.00;101442.91;5014331;28;20037;-68
2022/12/19 04:03:09;;;;;;;34.95;14.15;;;;;;;4.56;100.00;101439.34;5029238;28;20065;-69
2022/12/19 04:05:37;;;;;;;14.55;6.65;;;;;;;4.55;100.00;101432.28;5031040;28;20390;-69
2022/12/19 04:08:07;;;;;;;19.50;7.38;;;;;;;4.59;100.00;101433.19;5037167;28;20037;-70
2022/12/19 04:10:43;;;;;;;15.80;7.20;;;;;;;4.65;100.00;101434.56;5025393;28;20059;-70
2022/12/19 04:13:15;;;;;;;13.00;6.63;;;;;;;4.66;100.00;101430.69;5028746;28;20044;-70
2022/12/19 04:15:52;;;;;;;30.63;11.55;;;;;;;4.74;100.00;101427.06;5035204;28;20061;-69
2022/12/19 04:18:20;;;;;;;22.15;8.45;;;;;;;4.72;100.00;101425.78;5010509;28;20057;-69
2022/12/19 04:20:57;;;;;;;36.75;16.35;;;;;;;4.77;100.00;101423.63;5014107;28;20516;-70
2022/12/19 04:23:38;;;;;;;29.30;9.88;;;;;;;4.79;100.00;101421.34;5027905;28;20053;-71
2022/12/19 04:26:07;;;;;;;31.83;12.35;;;;;;;4.78;100.00;101422.50;5028874;28;20049;-69
2022/12/19 04:28:41;;;;;;;35.70;15.20;;;;;;;4.81;100.00;101410.84;5026596;28;20049;-69
2022/12/19 04:31:12;;;;;;;15.93;5.72;;;;;;;4.87;100.00;101414.16;5019740;28;20049;-70
2022/12/19 04:33:38;;;;;;;21.58;8.00;;;;;;;4.92;100.00;101428.44;5028990;28;20056;-69
2022/12/19 04:36:05;;;;;;;23.83;8.98;;;;;;;5.02;100.00;101417.00;5028015;28;20045;-69
2022/12/19 04:38:32;;;;;;;8.73;6.18;;;;;;;5.08;100.00;101407.41;5026403;28;20111;-71
2022/12/19 04:40:59;;;;;;;12.30;4.45;;;;;;;5.11;100.00;101409.47;5027307;28;20498;-71
2022/12/19 04:43:25;;;;;;;17.13;7.18;;;;;;;5.12;100.00;101405.59;5027838;28;20407;-68
2022/12/19 04:45:52;;;;;;;24.73;9.73;;;;;;;5.17;100.00;101397.09;5025254;28;20064;-71
2022/12/19 04:48:23;;;;;;;30.58;13.23;;;;;;;5.21;100.00;101403.53;5028294;28;20059;-68
2022/12/19 04:50:50;;;;;;;22.85;10.52;;;;;;;5.20;100.00;101407.41;5027349;28;20119;-69
2022/12/19 04:53:17;;;;;;;26.83;11.05;;;;;;;5.17;100.00;101408.06;5029291;28;20135;-70
2022/12/19 04:55:43;;;;;;;32.17;12.70;;;;;;;5.17;100.00;101404.56;5022581;28;20426;-70
2022/12/19 04:58:10;;;;;;;22.08;8.07;;;;;;;5.13;100.00;101409.91;5007597;28;20100;-69
2022/12/19 05:00:37;;;;;;;23.70;10.02;;;;;;;5.13;100.00;101398.94;5016067;28;20057;-69
2022/12/19 05:03:03;;;;;;;25.48;8.05;;;;;;;5.10;100.00;101394.13;5025021;28;20519;-69
2022/12/19 05:05:30;;;;;;;20.45;8.15;;;;;;;5.11;100.00;101404.00;5027143;28;20449;-70
2022/12/19 05:07:56;;;;;;;22.27;9.50;;;;;;;5.11;100.00;101390.28;5028367;28;20599;-69
2022/12/19 05:10:23;;;;;;;32.10;14.65;;;;;;;5.11;100.00;101384.78;5026361;28;20058;-71
2022/12/19 05:12:49;;;;;;;36.20;14.27;;;;;;;5.08;100.00;101390.16;5009601;28;20046;-70
2022/12/19 05:15:16;;;;;;;27.27;12.77;;;;;;;5.09;100.00;101389.00;5008046;28;20057;-69
2022/12/19 05:17:42;;;;;;;32.92;15.00;;;;;;;5.09;100.00;101373.34;5025628;28;20567;-67
2022/12/19 05:20:09;;;;;;;32.08;12.80;;;;;;;5.06;100.00;101379.53;5027054;28;20046;-67
2022/12/19 05:22:36;;;;;;;23.45;9.70;;;;;;;5.09;100.00;101381.56;5030415;28;20136;-69
2022/12/19 05:25:03;;;;;;;12.02;4.97;;;;;;;5.11;100.00;101376.56;5019846;28;20053;-69
2022/12/19 05:27:29;;;;;;;35.20;13.82;;;;;;;5.17;100.00;101383.38;5008315;28;20153;-69
2022/12/19 05:29:56;;;;;;;4.80;3.20;;;;;;;5.16;100.00;101381.78;5006781;28;20057;-70
2022/12/19 05:32:22;;;;;;;30.85;13.35;;;;;;;5.22;100.00;101376.88;5008365;28;20065;-68
2022/12/19 05:34:48;;;;;;;8.40;3.63;;;;;;;5.22;100.00;101372.19;5011692;28;20053;-69
2022/12/19 05:37:15;;;;;;;35.38;14.88;;;;;;;5.23;100.00;101371.03;5030376;28;20045;-68
2022/12/19 05:39:41;;;;;;;24.92;8.98;;;;;;;5.28;100.00;101373.56;5021684;28;20058;-69
2022/12/19 05:42:08;;;;;;;21.52;8.77;;;;;;;5.34;100.00;101377.63;5006557;28;20621;-68
2022/12/19 05:44:38;;;;;;;14.38;7.30;;;;;;;5.45;100.00;101377.97;5007710;28;20147;-69
2022/12/19 05:47:04;;;;;;;21.20;7.57;;;;;;;5.50;100.00;101385.94;5018020;28;20041;-69
2022/12/19 05:49:31;;;;;;;33.08;13.65;;;;;;;5.49;100.00;101376.13;5026605;28;20049;-69
2022/12/19 05:51:57;;;;;;;24.63;9.32;;;;;;;5.54;100.00;101375.09;5024960;28;20049;-70
2022/12/19 05:54:24;;;;;;;34.00;13.90;;;;;;;5.56;100.00;101386.53;5027388;28;20103;-69
2022/12/19 05:56:51;;;;;;;22.50;10.00;;;;;;;5.52;100.00;101389.16;5026192;28;20046;-70
2022/12/19 05:59:17;;;;;;;14.60;7.68;;;;;;;5.58;100.00;101379.53;5027810;28;20054;-68
2022/12/19 06:01:44;;;;;;;23.95;10.55;;;;;;;5.57;100.00;101375.19;5026634;28;20421;-72
2022/12/19 06:04:10;;;;;;;19.65;7.18;;;;;;;5.61;100.00;101389.03;5027305;28;20642;-69
2022/12/19 06:06:37;;;;;;;40.10;16.75;;;;;;;5.66;100.00;101375.03;5020924;28;20049;-69
2022/12/19 06:09:03;;;;;;;21.33;7.18;;;;;;;5.67;100.00;101376.66;5018805;28;20050;-71
2022/12/19 06:11:30;;;;;;;19.92;9.15;;;;;;;5.71;100.00;101380.28;5008931;28;20058;-70
2022/12/19 06:13:56;;;;;;;28.95;13.88;;;;;;;5.77;100.00;101385.19;5027738;28;20060;-68
2022/12/19 06:16:23;;;;;;;35.67;15.27;;;;;;;5.82;100.00;101386.91;5027074;28;20057;-70
2022/12/19 06:18:49;;;;;;;30.00;12.63;;;;;;;5.81;100.00;101385.31;5027526;28;20677;-68
2022/12/19 06:21:21;;;;;;;23.17;10.40;;;;;;;5.80;100.00;101394.69;5031265;28;20058;-69
2022/12/19 06:23:48;;;;;;;15.43;6.00;;;;;;;5.86;100.00;101393.31;5027466;28;20053;-69
2022/12/19 06:26:17;;;;;;;6.68;3.28;;;;;;;5.88;100.00;101382.78;5027676;28;20060;-71
2022/12/19 06:28:47;;;;;;;24.35;10.75;;;;;;;5.88;100.00;101385.53;5028528;28;20048;-72
2022/12/19 06:31:14;;;;;;;19.25;8.68;;;;;;;5.90;100.00;101381.28;5029303;28;20562;-71
2022/12/19 06:33:40;;;;;;;31.55;13.90;;;;;;;5.90;100.00;101389.50;5026993;28;20049;-69
2022/12/19 06:36:20;;;;;;;21.38;10.00;;;;;;;5.97;100.00;101378.72;5022194;28;20761;-68
2022/12/19 06:38:48;;;;;;;27.92;11.02;;;;;;;5.94;100.00;101395.91;5031171;28;20050;-69
2022/12/19 06:44:03;;;;;;;23.00;10.07;;;;;;;6.01;100.00;101373.34;5034666;28;20072;-73
2022/12/19 06:46:30;;;;;;;31.65;7.68;;;;;;;6.01;100.00;101371.38;5027376;28;20055;-69
2022/12/19 06:48:57;;;;;;;15.63;6.20;;;;;;;6.04;100.00;101367.16;5031688;28;20439;-69
2022/12/19 06:51:24;;;;;;;21.33;6.80;;;;;;;6.03;100.00;101366.34;5029906;28;20421;-69
2022/12/19 06:53:51;;;;;;;14.73;5.65;;;;;;;6.07;100.00;101360.97;5030425;28;20061;-69
2022/12/19 06:56:17;;;;;;;13.60;5.80;;;;;;;6.11;100.00;101367.34;5027532;28;20053;-69
2022/12/19 06:58:45;;;;;;;24.85;10.25;;;;;;;6.11;100.00;101370.09;5023748;28;20081;-70
2022/12/19 07:01:28;;;;;;;29.92;11.73;;;;;;;6.16;100.00;101361.56;5027613;28;20054;-71
2022/12/19 07:03:55;;;;;;;11.30;5.55;;;;;;;6.21;100.00;101361.34;5030740;28;20049;-69
2022/12/19 07:06:22;;;;;;;23.63;9.85;;;;;;;6.26;100.00;101367.38;5015673;28;20069;-68
2022/12/19 07:08:49;;;;;;;27.40;11.85;;;;;;;6.31;100.00;101366.31;5028157;28;20620;-68
2022/12/19 07:11:15;;;;;;;24.42;8.77;;;;;;;6.34;100.00;101360.91;5025133;28;20060;-71
2022/12/19 07:13:42;;;;;;;31.30;13.00;;;;;;;6.41;100.00;101368.53;5029855;28;20055;-69
2022/12/19 07:16:09;;;;;;;30.95;14.07;;;;;;;6.50;100.00;101377.41;5029848;28;20423;-68
2022/12/19 07:18:38;;;;;;;25.70;10.15;;;;;;;6.53;100.00;101371.19;5029790;28;20189;-69
2022/12/19 07:21:07;;;;;;;21.33;8.40;;;;;;;6.54;100.00;101384.59;5028831;28;20049;-70
2022/12/19 07:23:34;;;;;;;25.40;10.77;;;;;;;6.57;100.00;101383.06;5029756;28;20051;-69
2022/12/19 07:26:00;;;;;;;18.33;7.68;;;;;;;6.58;100.00;101384.69;5033757;28;20427;-69
2022/12/19 07:28:27;;;;;;;24.95;11.52;;;;;;;6.57;100.00;101375.63;5020475;28;20052;-70
2022/12/19 07:30:53;;;;;;;25.85;12.18;;;;;;;6.63;100.00;101387.16;5027944;28;20062;-69
2022/12/19 07:33:20;;;;;;;29.13;12.90;;;;;;;6.60;100.00;101398.88;5031544;28;20045;-68
2022/12/19 07:35:47;;;;;;;20.40;7.50;;;;;;;6.66;100.00;101394.72;5026054;28;20053;-70
2022/12/19 07:38:14;;;;;;;39.55;18.13;;;;;;;6.64;100.00;101395.06;5028614;28;20490;-70
2022/12/19 07:40:40;;;;;;;31.20;12.10;;;;;;;6.63;100.00;101403.66;5024851;28;20044;-70
2022/12/19 07:43:07;;;;;;;23.98;10.55;;;;;;;6.69;100.00;101402.25;5032629;28;20053;-71
2022/12/19 07:45:36;;;;;;;24.55;10.80;;;;;;;6.71;100.00;101388.94;5029106;28;20056;-71
2022/12/19 07:48:05;;;;;;;11.63;5.10;;;;;;;6.76;100.00;101395.00;5029773;28;20478;-70
2022/12/19 07:50:32;;;;;;;13.27;6.20;;;;;;;6.74;100.00;101391.78;5028312;28;20049;-70
2022/12/19 07:52:59;;;;;;;15.25;7.65;;;;;;;6.79;100.00;101375.00;5012133;28;20129;-71
2022/12/19 07:55:26;;;;;;;23.33;9.68;;;;;;;6.91;100.00;101376.84;5028487;28;20449;-71
2022/12/19 07:57:54;;;;;;;21.33;8.55;;;;;;;6.86;100.00;101391.72;5028526;28;20049;-69
2022/12/19 08:00:21;;;;;;;22.05;10.93;;;;;;;6.88;100.00;101388.56;5017869;28;20054;-70
2022/12/19 08:02:48;;;;;;;18.80;6.28;;;;;;;6.93;100.00;101396.56;5014420;28;20069;-70
2022/12/19 08:05:15;;;;;;;24.98;8.55;;;;;;;6.95;100.00;101397.03;5028393;28;20052;-71
2022/12/19 08:07:41;;;;;;;20.33;8.43;;;;;;;7.00;100.00;101393.97;5026939;28;20060;-73
2022/12/19 08:10:10;;;;;;;30.25;12.20;;;;;;;7.01;100.00;101398.31;5027195;28;20045;-70
2022/12/19 08:12:37;;;;;;;18.10;8.10;;;;;;;7.07;100.00;101394.16;5035634;28;20068;-70
2022/12/19 08:15:04;;;;;;;28.15;12.70;;;;;;;7.11;100.00;101408.78;5028351;28;20050;-70
2022/12/19 08:17:33;;;;;;;10.88;5.07;;;;;;;7.17;100.00;101407.38;5026954;28;20057;-70
2022/12/19 08:20:00;;;;;;;25.13;11.38;;;;;;;7.17;100.00;101410.13;5038967;28;20080;-70
2022/12/19 08:22:28;;;;;;;18.15;8.23;;;;;;;7.23;100.00;101400.44;5032105;28;20042;-70
2022/12/19 08:24:55;;;;;;;24.77;10.20;;;;;;;7.23;100.00;101403.19;5026678;28;20049;-69
2022/12/19 08:27:23;;;;;;;34.63;16.20;;;;;;;7.22;100.00;101394.13;5030114;28;20154;-70
2022/12/19 08:29:49;;;;;;;24.67;10.90;;;;;;;7.20;100.00;101395.66;5044619;28;20052;-70
2022/12/19 08:32:16;;;;;;;11.63;4.28;;;;;;;7.17;100.00;101388.91;5029352;28;20048;-70
2022/12/19 08:34:48;;;;;;;25.77;11.57;;;;;;;7.20;100.00;101390.13;5022609;28;20046;-71
2022/12/19 08:37:14;;;;;;;29.40;14.82;;;;;;;7.21;100.00;101397.22;5020120;28;20128;-70
2022/12/19 08:39:41;;;;;;;17.35;8.65;;;;;;;7.21;100.00;101408.25;5027524;28;20071;-71
2022/12/19 08:42:07;;;;;;;22.98;8.38;;;;;;;7.18;100.00;101411.72;5027711;28;20049;-71
2022/12/19 08:44:34;;;;;;;28.75;10.45;;;;;;;7.17;100.00;101410.13;5025455;28;20054;-70
2022/12/19 08:47:01;;;;;;;32.45;15.15;;;;;;;7.24;100.00;101413.03;5023087;28;20422;-70
2022/12/19 08:49:28;;;;;;;33.17;14.63;;;;;;;7.24;100.00;101410.28;5027727;28;20145;-70
2022/12/19 08:51:54;;;;;;;23.88;10.40;;;;;;;7.21;100.00;101413.75;5024771;28;20054;-70
2022/12/19 08:54:21;;;;;;;13.90;4.53;;;;;;;7.19;100.00;101410.56;5020775;28;20061;-71
2022/12/19 08:56:47;;;;;;;25.08;8.45;;;;;;;7.23;100.00;101416.94;5028629;28;20059;-70
2022/12/19 08:59:14;;;;;;;20.67;7.43;;;;;;;7.21;100.00;101414.56;5027064;28;20053;-71
2022/12/19 09:01:58;;;;;;;21.88;9.95;;;;;;;7.28;100.00;101424.91;5029657;28;20056;-70
2022/12/19 09:04:26;;;;;;;21.92;8.77;;;;;;;7.33;100.00;101416.41;5023325;28;20099;-69
2022/12/19 09:07:12;;;;;;;14.73;7.40;;;;;;;7.31;100.00;101410.44;5023816;28;20046;-69
2022/12/19 09:09:41;;;;;;;31.42;11.25;;;;;;;7.36;100.00;101407.44;5020274;28;20128;-70
2022/12/19 09:12:08;;;;;;;19.42;9.20;;;;;;;7.34;100.00;101407.78;5026377;28;20059;-69
2022/12/19 09:14:35;;;;;;;16.65;8.15;;;;;;;7.36;100.00;101394.44;5027976;28;20509;-70
2022/12/19 09:17:01;;;;;;;22.35;10.52;;;;;;;7.35;100.00;101398.34;5028514;28;20053;-69
2022/12/19 09:19:30;;;;;;;20.02;8.55;;;;;;;7.42;100.00;101393.00;5046887;28;20159;-68
2022/12/19 09:21:57;;;;;;;20.38;8.55;;;;;;;7.45;100.00;101391.47;5046459;28;20572;-71
2022/12/19 09:24:24;;;;;;;12.55;4.90;;;;;;;7.43;100.00;101399.31;5038678;28;20056;-70
2022/12/19 09:26:50;;;;;;;23.40;9.45;;;;;;;7.49;100.00;101403.38;5031277;28;20045;-69
2022/12/19 09:29:17;;;;;;;21.60;8.90;;;;;;;7.55;100.00;101408.25;5028859;28;20510;-69
2022/12/19 09:31:48;;;;;;;27.85;12.00;;;;;;;7.55;100.00;101410.19;5034646;28;20059;-71
2022/12/19 09:34:22;;;;;;;;;;;;;;;7.60;100.00;101427.22;5026267;28;20055;-70
2022/12/19 09:36:58;;;;;;;33.55;16.75;;;;;;;7.68;100.00;101406.97;5028555;28;19925;-70
2022/12/19 09:39:24;;;;;;;26.10;10.45;;;;;;;7.67;100.00;101412.84;5025426;28;20049;-69
2022/12/19 09:42:06;;;;;;;24.65;10.38;;;;;;;7.69;100.00;101416.00;5023332;28;20417;-70
2022/12/19 09:44:47;;;;;;;20.92;7.93;;;;;;;7.69;100.00;101410.50;5024756;28;20057;-71
2022/12/19 09:47:35;;;;;;;23.83;9.65;;;;;;;7.71;100.00;101408.19;5042224;28;20044;-71
2022/12/19 09:50:14;;;;;;;29.23;11.32;;;;;;;7.82;100.00;101418.28;5039432;28;20049;-71
2022/12/19 09:52:55;;;;;;;25.70;13.52;;;;;;;7.81;100.00;101411.19;5031058;28;20413;-70
2022/12/19 09:55:27;;;;;;;20.83;8.73;;;;;;;7.88;100.00;101389.28;5023954;28;20053;-72
2022/12/19 09:57:56;;;;;;;21.30;8.50;;;;;;;7.94;100.00;101392.56;5022329;28;20196;-71
2022/12/19 10:00:33;;;;;;;17.65;7.38;;;;;;;7.98;100.00;101393.41;5018213;28;20803;-70
2022/12/19 10:03:14;;;;;;;27.98;9.85;;;;;;;7.95;100.00;101400.44;5030593;28;20498;-70
2022/12/19 10:05:48;;;;;;;14.68;7.57;;;;;;;8.03;100.00;101404.13;5030990;28;20132;-74
2022/12/19 10:08:40;;;;;;;29.08;10.55;;;;;;;8.03;100.00;101396.66;5011610;28;20132;-70
2022/12/19 10:11:52;;;;;;;23.98;10.30;;;;;;;8.13;100.00;101398.03;5011052;28;20046;-71
2022/12/19 10:14:54;;;;;;;19.75;8.73;;;;;;;8.18;100.00;101408.78;5013693;28;20050;-70
2022/12/19 10:17:30;;;;;;;15.95;7.65;;;;;;;8.20;100.00;101400.91;5010338;28;20081;-73
2022/12/19 10:20:12;;;;;;;13.68;6.70;;;;;;;8.23;100.00;101402.22;5025401;28;20060;-72
2022/12/19 10:22:53;;;;;;;23.25;8.85;;;;;;;8.29;100.00;101409.81;5024392;28;20049;-72
2022/12/19 10:25:38;;;;;;;17.80;8.45;;;;;;;8.31;100.00;101410.25;5031487;28;20055;-71
2022/12/19 10:28:10;;;;;;;18.23;8.47;;;;;;;8.38;100.00;101406.81;5029107;28;20124;-69
2022/12/19 10:31:17;;;;;;;26.55;11.98;;;;;;;8.37;100.00;101408.75;5029767;28;20053;-70
2022/12/19 10:34:05;;;;;;;20.88;9.90;;;;;;;8.38;100.00;101406.81;5017244;28;20081;-70
2022/12/19 10:36:43;;;;;;;22.60;10.18;;;;;;;8.42;100.00;101407.66;5011233;28;20430;-71
2022/12/19 10:39:32;;;;;;;21.48;8.10;;;;;;;8.42;100.00;101394.69;5016836;28;20049;-69
2022/12/19 10:42:14;;;;;;;25.20;11.27;;;;;;;8.38;100.00;101399.34;5030046;28;20115;-71
2022/12/19 10:44:42;;;;;;;22.55;9.27;;;;;;;8.50;100.00;101385.38;5030896;28;20135;-71
2022/12/19 10:47:14;;;;;;;8.27;3.35;;;;;;;8.51;100.00;101395.25;5034875;28;20068;-71
2022/12/19 10:49:41;;;;;;;19.10;8.73;;;;;;;8.51;100.00;101384.22;5024725;28;20049;-71
2022/12/19 10:52:10;;;;;;;16.77;6.78;;;;;;;8.52;100.00;101385.81;5012701;28;20091;-71
2022/12/19 10:54:38;;;;;;;21.25;8.23;;;;;;;8.65;100.00;101389.19;5030550;28;20057;-71
2022/12/19 10:57:20;;;;;;;21.55;8.13;;;;;;;8.66;100.00;101386.06;5028476;28;20057;-70
2022/12/19 11:00:14;;;;;;;20.80;8.05;;;;;;;8.73;100.00;101386.16;5033576;28;20053;-70
2022/12/19 11:02:45;;;;;;;18.65;8.15;;;;;;;8.83;100.00;101385.56;5027819;28;20081;-72
2022/12/19 11:05:47;;;;;;;23.30;9.02;;;;;;;8.83;100.00;101379.22;5015355;28;20088;-72
2022/12/19 11:08:32;;;;;;;16.98;6.90;;;;;;;8.89;100.00;101395.13;5028058;28;20058;-71
2022/12/19 11:11:02;;;;;;;15.30;5.28;;;;;;;8.93;100.00;101381.38;5025752;28;20100;-71
2022/12/19 11:13:49;;;;;;;18.30;7.22;;;;;;;8.93;100.00;101382.16;5025745;28;20103;-72
2022/12/19 11:16:36;;;;;;;22.17;9.77;;;;;;;8.97;100.00;101379.44;5034589;28;20053;-71
2022/12/19 11:19:33;;;;;;;12.88;5.88;;;;;;;8.98;100.00;101373.56;5028185;28;20522;-70
2022/12/19 11:22:31;;;;;;;22.08;7.38;;;;;;;8.96;100.00;101378.69;5031956;28;20080;-71
2022/12/19 11:25:21;;;;;;;19.02;7.10;;;;;;;9.01;100.00;101370.06;5016272;28;20053;-71
2022/12/19 11:28:32;;;;;;;9.52;4.25;;;;;;;9.07;100.00;101379.63;5002155;28;20587;-73
2022/12/19 11:31:23;;;;;;;16.77;6.55;;;;;;;9.08;100.00;101370.16;5004115;28;20096;-72
2022/12/19 11:34:22;;;;;;;16.75;7.13;;;;;;;9.08;100.00;101359.13;5006954;28;20792;-71
2022/12/19 11:36:51;;;;;;;12.07;6.35;;;;;;;9.13;100.00;101371.81;5006766;28;20243;-71
2022/12/19 11:39:40;;;;;;;9.13;3.65;;;;;;;9.11;100.00;101365.91;5007575;28;20060;-72
2022/12/19 11:42:13;;;;;;;16.95;6.20;;;;;;;9.14;100.00;101368.69;5009159;28;20053;-72
2022/12/19 11:44:47;;;;;;;20.70;9.35;;;;;;;9.24;100.00;101368.06;5005634;28;20053;-70
2022/12/19 11:47:53;;;;;;;21.08;5.93;;;;;;;9.25;100.00;101386.22;5008271;28;20053;-72